메인 페이지
METAR-TAF:

METAR-TAF

공항 :

콜럼버스, 미시시피, 미국

위도: 33-39N, 경도: 088-27W, 고도: 67m

현재 날씨관측

예보는 31분 전, 07:56시(UTC)에 발표되었습니다.
무풍
온도 5°C
습도 93%
기압 1015 hPa
시정: 12.9km
맑음

METAR: KCBM 010756Z AUTO 00000KT 8SM CLR 05/04 A2997 RMK AO2 SLP152 T00520043 $

시각: 03:27 (08:27 UTC)

예보

예보는 10 시간 29분 전, 21:58시(UTC)에 발표되었습니다.
예보 대상 시간: 31일 21시부터 01일 23시까지 (UTC)
15kt, 순간 최대 풍속 25kt
시정 10km 이상
고도 1500ft 상공 구름 보통
고도 2000ft 상공 구름 많음
전환 중
31일 22시부터 31일 23시까지 (UTC)
9kt
시정: 0111m
고도 3000ft 상공 구름 조금

TAF: KCBM 312158Z 3121/0123 35015G25KT 9999 SCT015 BKN020 QNH2984INS BECMG 3122/3123 35009KT 9999 FEW030 QNH2990INS TX14/3121Z TN06/0112Z LAST NO AMDS AFT 3122 NEXT 0111

4,000개 이상의 공항 관측 자료 및 예보 (METAR 및 TAF 보고).

지도상에서 검색 가능한 기상관측소가 노란 점과 빨간 점으로 표시되어 있습니다.

기상관측소 명을 보려면 표시 위로 마우스를 이동하세요.

날씨 관측과 예보를 보려면 클릭하세요.

지도 변경 : 확대하려면 엑스 표시가 있는 녹색 버튼, 축소하려면 빼기 표시가 있는 녹색 버튼, 다음 페이지의 지도를 보려면 녹색 화살표를 클릭하세요.


METAR-TAF: